createdAt,value
2019-06-26T00:02:08.037Z,6.53
2019-06-26T00:04:37.831Z,6.50
2019-06-26T00:07:07.764Z,6.40
2019-06-26T00:09:37.607Z,5.85
2019-06-26T00:12:07.564Z,6.37
2019-06-26T00:14:38.835Z,6.80
2019-06-26T00:17:09.480Z,6.92
2019-06-26T00:19:39.458Z,7.03
2019-06-26T00:22:09.411Z,6.78
2019-06-26T00:24:39.313Z,7.50
2019-06-26T00:27:09.104Z,7.25
2019-06-26T00:29:38.914Z,7.00
2019-06-26T00:32:08.803Z,6.55
2019-06-26T00:34:38.810Z,7.22
2019-06-26T00:37:09.077Z,7.47
2019-06-26T00:39:39.032Z,7.05
2019-06-26T00:42:08.896Z,6.33
2019-06-26T00:44:38.810Z,6.67
2019-06-26T00:47:08.724Z,6.50
2019-06-26T00:49:38.621Z,7.85
2019-06-26T00:52:08.547Z,8.30
2019-06-26T00:54:38.440Z,7.72
2019-06-26T00:57:08.418Z,8.23
2019-06-26T00:59:37.221Z,8.35
2019-06-26T01:02:06.781Z,8.15
2019-06-26T01:04:47.175Z,8.08
2019-06-26T01:07:17.040Z,8.20
2019-06-26T01:09:46.987Z,9.10
2019-06-26T01:12:16.775Z,9.65
2019-06-26T01:14:46.699Z,9.73
2019-06-26T01:17:16.610Z,8.95
2019-06-26T01:19:46.526Z,9.03
2019-06-26T01:22:16.446Z,8.53
2019-06-26T01:24:46.389Z,7.95
2019-06-26T01:27:16.307Z,8.43
2019-06-26T01:29:46.228Z,8.20
2019-06-26T01:32:16.138Z,8.60
2019-06-26T01:34:46.043Z,10.15
2019-06-26T01:37:15.841Z,8.78
2019-06-26T01:39:45.639Z,9.50
2019-06-26T01:42:15.556Z,11.33
2019-06-26T01:44:45.473Z,11.65
2019-06-26T01:47:15.280Z,10.58
2019-06-26T01:49:45.211Z,12.88
2019-06-26T01:52:15.154Z,11.97
2019-06-26T01:54:45.092Z,11.88
2019-06-26T01:57:14.995Z,7.92
2019-06-26T01:59:44.807Z,9.30
2019-06-26T02:02:14.670Z,13.08
2019-06-26T02:04:44.621Z,12.82
2019-06-26T02:07:14.532Z,13.05
2019-06-26T02:09:44.473Z,13.90
2019-06-26T02:12:14.380Z,13.35
2019-06-26T02:14:44.197Z,13.35
2019-06-26T02:17:14.016Z,13.20
2019-06-26T02:19:44.001Z,13.13
2019-06-26T02:22:13.778Z,12.13
2019-06-26T02:24:43.685Z,12.70
2019-06-26T02:27:13.582Z,13.25
2019-06-26T02:29:43.869Z,12.18
2019-06-26T02:32:13.924Z,13.28
2019-06-26T02:34:43.810Z,12.88
2019-06-26T02:37:13.882Z,13.68
2019-06-26T02:39:43.804Z,13.35
2019-06-26T02:42:13.734Z,13.55
2019-06-26T02:44:53.447Z,15.20
2019-06-26T02:47:20.026Z,9.93
2019-06-26T02:49:46.741Z,12.30
2019-06-26T02:52:16.629Z,11.38
2019-06-26T02:54:46.545Z,11.55
2019-06-26T02:57:16.436Z,14.75
2019-06-26T02:59:46.333Z,18.45
2019-06-26T03:02:16.125Z,18.02
2019-06-26T03:04:45.946Z,18.80
2019-06-26T03:07:15.859Z,18.52
2019-06-26T03:09:45.744Z,18.70
2019-06-26T03:12:18.460Z,19.57
2019-06-26T03:14:48.398Z,22.35
2019-06-26T03:17:18.321Z,20.30
2019-06-26T03:19:48.171Z,20.15
2019-06-26T03:22:17.979Z,21.12
2019-06-26T03:24:47.931Z,21.55
2019-06-26T03:27:17.858Z,22.07
2019-06-26T03:29:47.772Z,20.65
2019-06-26T03:32:17.613Z,22.05
2019-06-26T03:34:47.597Z,22.15
2019-06-26T03:37:17.408Z,22.20
2019-06-26T03:39:47.281Z,22.42
2019-06-26T03:42:17.195Z,23.20
2019-06-26T03:44:47.109Z,23.12
2019-06-26T03:47:17.023Z,24.10
2019-06-26T03:49:46.991Z,23.25
2019-06-26T03:52:16.933Z,23.45
2019-06-26T03:54:46.772Z,22.15
2019-06-26T03:57:16.687Z,22.32
2019-06-26T03:59:46.614Z,23.18
2019-06-26T04:02:16.490Z,22.95
2019-06-26T04:04:46.441Z,22.87
2019-06-26T04:07:16.234Z,22.67
2019-06-26T04:09:46.157Z,21.52
2019-06-26T04:12:16.069Z,22.67
2019-06-26T04:14:45.983Z,22.13
2019-06-26T04:17:15.901Z,22.87
2019-06-26T04:19:45.812Z,23.45
2019-06-26T04:22:15.727Z,23.77
2019-06-26T04:24:45.624Z,22.85
2019-06-26T04:27:15.560Z,23.98
2019-06-26T04:29:45.516Z,25.02
2019-06-26T04:32:15.432Z,25.45
2019-06-26T04:34:45.547Z,28.20
2019-06-26T04:37:15.479Z,28.07
2019-06-26T04:39:45.335Z,30.20
2019-06-26T04:42:15.133Z,32.50
2019-06-26T04:44:45.041Z,35.48
2019-06-26T04:47:14.997Z,37.33
2019-06-26T04:49:44.859Z,38.23
2019-06-26T04:52:14.810Z,39.23
2019-06-26T04:54:44.742Z,39.90
2019-06-26T04:57:14.636Z,39.78
2019-06-26T04:59:44.712Z,38.95
2019-06-26T05:02:14.775Z,36.95
2019-06-26T05:04:44.654Z,39.23
2019-06-26T05:07:14.558Z,40.43
2019-06-26T05:09:44.562Z,39.23
2019-06-26T05:12:14.349Z,40.35
2019-06-26T05:14:44.375Z,41.15
2019-06-26T05:17:14.376Z,40.40
2019-06-26T05:19:44.486Z,38.08
2019-06-26T05:22:14.404Z,40.70
2019-06-26T05:24:46.452Z,41.68
2019-06-26T05:27:16.010Z,40.73
2019-06-26T05:29:46.109Z,40.12
2019-06-26T05:32:16.054Z,41.77
2019-06-26T05:34:45.930Z,40.80
2019-06-26T05:37:15.833Z,39.78
2019-06-26T05:39:45.749Z,41.42
2019-06-26T05:42:15.576Z,41.28
2019-06-26T05:44:45.371Z,41.13
2019-06-26T05:47:15.187Z,40.45
2019-06-26T05:49:45.097Z,40.80
2019-06-26T05:52:16.697Z,42.00
2019-06-26T05:54:46.613Z,41.08
2019-06-26T05:57:16.498Z,42.95
2019-06-26T05:59:46.398Z,39.33
2019-06-26T06:02:16.312Z,40.10
2019-06-26T06:04:46.229Z,42.58
2019-06-26T06:07:16.144Z,42.35
2019-06-26T06:09:46.201Z,41.42
2019-06-26T06:12:16.118Z,41.40
2019-06-26T06:14:46.040Z,41.18
2019-06-26T06:17:16.245Z,41.40
2019-06-26T06:19:46.123Z,40.17
2019-06-26T06:22:16.148Z,42.38
2019-06-26T06:24:46.334Z,42.70
2019-06-26T06:27:16.506Z,41.88
2019-06-26T06:29:46.349Z,41.58
2019-06-26T06:32:16.213Z,42.03
2019-06-26T06:34:45.986Z,41.73
2019-06-26T06:37:15.763Z,43.02
2019-06-26T06:39:45.592Z,41.85
2019-06-26T06:42:15.471Z,40.80
2019-06-26T06:44:45.790Z,42.95
2019-06-26T06:47:16.000Z,43.42
2019-06-26T06:49:45.955Z,42.43
2019-06-26T06:52:16.848Z,42.35
2019-06-26T06:54:46.995Z,42.75
2019-06-26T06:57:16.858Z,43.78
2019-06-26T06:59:46.764Z,41.20
2019-06-26T07:02:16.690Z,40.85
2019-06-26T07:04:46.594Z,41.85
2019-06-26T07:07:16.497Z,41.08
2019-06-26T07:09:46.363Z,38.48
2019-06-26T07:12:16.246Z,39.95
2019-06-26T07:14:46.153Z,41.92
2019-06-26T07:17:20.776Z,39.42
2019-06-26T07:19:47.659Z,39.05
2019-06-26T07:22:17.558Z,38.85
2019-06-26T07:24:47.461Z,40.63
2019-06-26T07:27:17.343Z,40.25
2019-06-26T07:29:47.168Z,38.60
2019-06-26T07:32:16.947Z,38.95
2019-06-26T07:34:46.754Z,41.18
2019-06-26T07:37:16.577Z,39.63
2019-06-26T07:39:46.457Z,39.55
2019-06-26T07:42:16.399Z,42.40
2019-06-26T07:44:46.214Z,40.12
2019-06-26T07:47:22.947Z,41.68
2019-06-26T07:49:47.638Z,40.12
2019-06-26T07:52:17.740Z,42.53
2019-06-26T07:54:47.752Z,44.38
2019-06-26T07:57:17.738Z,38.78
2019-06-26T07:59:47.742Z,41.35
2019-06-26T08:02:17.702Z,40.98
2019-06-26T08:04:47.623Z,39.95
2019-06-26T08:07:17.529Z,38.88
2019-06-26T08:09:47.427Z,39.33
2019-06-26T08:12:17.524Z,40.12
2019-06-26T08:14:47.397Z,41.25
2019-06-26T08:17:17.391Z,40.08
2019-06-26T08:19:47.278Z,40.40
2019-06-26T08:22:17.095Z,39.48
2019-06-26T08:24:46.902Z,41.18
2019-06-26T08:27:16.704Z,40.70
2019-06-26T08:29:46.710Z,40.88
2019-06-26T08:32:16.636Z,40.48
2019-06-26T08:34:46.559Z,39.45
2019-06-26T08:37:16.394Z,41.53
2019-06-26T08:39:46.179Z,43.38
2019-06-26T08:42:16.017Z,42.17
2019-06-26T08:44:45.806Z,41.37
2019-06-26T08:47:15.605Z,42.83
2019-06-26T08:49:45.568Z,46.00
2019-06-26T08:52:16.260Z,44.27
2019-06-26T08:54:46.052Z,44.75
2019-06-26T08:57:15.947Z,38.65
2019-06-26T08:59:45.846Z,43.28
2019-06-26T09:02:15.760Z,43.95
2019-06-26T09:04:45.670Z,45.43
2019-06-26T09:07:15.481Z,43.20
2019-06-26T09:09:45.374Z,45.33
2019-06-26T09:12:15.294Z,44.50
2019-06-26T09:14:45.089Z,40.20
2019-06-26T09:17:14.974Z,42.50
2019-06-26T09:19:44.963Z,42.35
2019-06-26T09:22:14.874Z,42.53
2019-06-26T09:24:44.761Z,40.67
2019-06-26T09:27:15.118Z,40.52
2019-06-26T09:29:45.244Z,43.95
2019-06-26T09:32:15.292Z,39.58
2019-06-26T09:34:45.183Z,40.83
2019-06-26T09:37:15.071Z,40.12
2019-06-26T09:39:44.860Z,37.78
2019-06-26T09:42:19.363Z,34.98
2019-06-26T09:44:46.867Z,36.88
2019-06-26T09:47:16.648Z,37.65
2019-06-26T09:49:46.446Z,37.57
2019-06-26T09:52:16.374Z,37.78
2019-06-26T09:54:46.168Z,35.23
2019-06-26T09:57:16.075Z,34.88
2019-06-26T09:59:46.022Z,38.42
2019-06-26T10:02:15.935Z,38.92
2019-06-26T10:04:46.984Z,39.08
2019-06-26T10:07:16.967Z,39.73
2019-06-26T10:09:46.880Z,36.48
2019-06-26T10:12:16.760Z,37.45
2019-06-26T10:14:48.212Z,37.13
2019-06-26T10:17:18.079Z,40.08
2019-06-26T10:19:48.044Z,40.73
2019-06-26T10:22:17.859Z,40.78
2019-06-26T10:24:48.405Z,35.13
2019-06-26T10:27:18.268Z,36.10
2019-06-26T10:29:48.148Z,35.73
2019-06-26T10:32:18.022Z,34.95
2019-06-26T10:34:48.087Z,38.08
2019-06-26T10:37:17.900Z,39.85
2019-06-26T10:39:47.811Z,35.70
2019-06-26T10:42:17.614Z,35.58
2019-06-26T10:44:47.535Z,34.90
2019-06-26T10:47:17.499Z,31.23
2019-06-26T10:49:47.417Z,30.35
2019-06-26T10:52:17.200Z,35.15
2019-06-26T10:54:47.091Z,33.98
2019-06-26T10:57:16.980Z,33.00
2019-06-26T10:59:46.918Z,32.83
2019-06-26T11:02:17.183Z,34.60
2019-06-26T11:04:47.194Z,34.43
2019-06-26T11:07:17.172Z,36.30
2019-06-26T11:09:47.092Z,34.78
2019-06-26T11:12:17.064Z,34.58
2019-06-26T11:14:46.957Z,34.03
2019-06-26T11:17:16.762Z,30.68
2019-06-26T11:19:46.565Z,33.15
2019-06-26T11:22:16.364Z,33.83
2019-06-26T11:24:46.195Z,33.10
2019-06-26T11:27:16.064Z,26.85
2019-06-26T11:29:45.978Z,28.73
2019-06-26T11:32:16.219Z,29.77
2019-06-26T11:34:46.381Z,29.05
2019-06-26T11:37:16.331Z,31.62
2019-06-26T11:39:46.316Z,27.80
2019-06-26T11:42:16.391Z,31.33
2019-06-26T11:44:46.309Z,27.17
2019-06-26T11:47:16.257Z,26.87
2019-06-26T11:49:59.358Z,25.62
2019-06-26T11:52:17.997Z,27.93
2019-06-26T11:55:01.420Z,28.30
2019-06-26T11:57:19.569Z,34.13
2019-06-26T11:59:49.546Z,29.20
2019-06-26T12:02:19.716Z,26.25
2019-06-26T12:04:49.541Z,28.70
2019-06-26T12:07:20.858Z,27.52
2019-06-26T12:09:51.105Z,31.97
2019-06-26T12:12:21.107Z,28.60
2019-06-26T12:14:50.947Z,24.98
2019-06-26T12:17:20.790Z,24.98
2019-06-26T12:19:50.566Z,25.40
2019-06-26T12:22:20.410Z,26.25
2019-06-26T12:24:50.202Z,27.00
2019-06-26T12:27:19.984Z,26.37
2019-06-26T12:29:49.776Z,20.95
2019-06-26T12:32:19.651Z,23.90
2019-06-26T12:34:49.445Z,19.67
2019-06-26T12:37:19.201Z,23.47
2019-06-26T12:39:49.034Z,18.37
2019-06-26T12:42:18.955Z,18.27
2019-06-26T12:44:48.861Z,20.37
2019-06-26T12:47:18.764Z,20.97
2019-06-26T12:49:48.625Z,18.92
2019-06-26T12:52:18.457Z,16.42
2019-06-26T12:54:48.276Z,17.35
2019-06-26T12:57:18.482Z,18.50
2019-06-26T12:59:57.450Z,18.50
2019-06-26T13:02:20.063Z,15.85
2019-06-26T13:04:49.884Z,15.78
2019-06-26T13:07:19.712Z,16.20
2019-06-26T13:09:49.506Z,11.55
2019-06-26T13:12:19.300Z,12.73
2019-06-26T13:14:49.125Z,11.70
2019-06-26T13:17:18.940Z,16.12
2019-06-26T13:19:48.837Z,14.15
2019-06-26T13:22:18.980Z,13.00
2019-06-26T13:24:48.950Z,13.28
2019-06-26T13:27:18.863Z,11.40
2019-06-26T13:29:48.664Z,14.38
2019-06-26T13:32:18.492Z,14.83
2019-06-26T13:34:48.268Z,11.68
2019-06-26T13:37:18.063Z,10.05
2019-06-26T13:39:47.861Z,10.25
2019-06-26T13:42:17.674Z,11.08
2019-06-26T13:44:47.515Z,8.85
2019-06-26T13:47:17.511Z,10.45
2019-06-26T13:49:47.373Z,9.33
2019-06-26T13:52:17.281Z,10.03
2019-06-26T13:54:47.134Z,10.03
2019-06-26T13:57:16.943Z,10.30
2019-06-26T13:59:46.783Z,10.43
2019-06-26T14:02:19.736Z,10.48
2019-06-26T14:04:48.061Z,9.55
2019-06-26T14:07:17.899Z,8.73
2019-06-26T14:09:47.697Z,7.47
2019-06-26T14:12:19.293Z,7.70
2019-06-26T14:14:57.360Z,6.60
2019-06-26T14:17:20.776Z,8.15
2019-06-26T14:19:50.590Z,7.10
2019-06-26T14:22:20.427Z,6.45
2019-06-26T14:24:53.212Z,6.05
2019-06-26T14:27:21.823Z,6.08
2019-06-26T14:29:51.874Z,4.75
2019-06-26T14:32:21.656Z,5.78
2019-06-26T14:34:51.478Z,5.83
2019-06-26T14:37:21.534Z,5.35
2019-06-26T14:39:51.414Z,5.83
2019-06-26T14:42:21.224Z,5.08
2019-06-26T14:44:52.817Z,5.25
2019-06-26T14:47:22.712Z,5.62
2019-06-26T14:49:52.521Z,5.95
2019-06-26T14:52:22.324Z,5.40
2019-06-26T14:54:52.162Z,4.78
2019-06-26T14:57:23.832Z,4.55
2019-06-26T14:59:53.466Z,5.28
2019-06-26T15:02:23.264Z,5.15
2019-06-26T15:04:53.055Z,5.25
2019-06-26T15:07:22.862Z,4.50
2019-06-26T15:09:52.726Z,5.40
2019-06-26T15:12:22.589Z,5.22
2019-06-26T15:14:52.403Z,5.05
2019-06-26T15:17:22.222Z,5.03
2019-06-26T15:19:52.035Z,4.85
2019-06-26T15:22:21.889Z,5.58
2019-06-26T15:24:51.704Z,5.42
2019-06-26T15:27:21.476Z,5.37
2019-06-26T15:29:51.411Z,5.62
2019-06-26T15:32:21.195Z,5.28
2019-06-26T15:34:51.007Z,6.30
2019-06-26T15:37:20.798Z,5.35
2019-06-26T15:39:50.612Z,5.97
2019-06-26T15:42:20.415Z,6.28
2019-06-26T15:44:50.239Z,5.85
2019-06-26T15:47:20.063Z,5.47
2019-06-26T15:49:49.949Z,5.70
2019-06-26T15:52:20.101Z,5.17
2019-06-26T15:54:49.948Z,5.30
2019-06-26T15:57:19.818Z,5.42
2019-06-26T15:59:49.652Z,5.55
2019-06-26T16:02:19.495Z,6.33
2019-06-26T16:04:50.410Z,6.10
2019-06-26T16:07:20.267Z,7.28
2019-06-26T16:09:50.069Z,6.97
2019-06-26T16:12:19.882Z,6.72
2019-06-26T16:14:49.673Z,6.53
2019-06-26T16:17:21.142Z,7.50
2019-06-26T16:19:50.945Z,7.08
2019-06-26T16:22:31.627Z,7.00
2019-06-26T16:24:52.439Z,6.58
2019-06-26T16:27:22.199Z,7.67
2019-06-26T16:29:52.034Z,7.30
2019-06-26T16:32:21.834Z,7.70
2019-06-26T16:34:51.600Z,6.45
2019-06-26T16:37:21.418Z,6.87
2019-06-26T16:39:51.288Z,6.75
2019-06-26T16:42:21.089Z,6.72
2019-06-26T16:44:50.965Z,6.85
2019-06-26T16:47:20.786Z,7.15
2019-06-26T16:49:50.880Z,6.65
2019-06-26T16:52:20.702Z,6.15
2019-06-26T16:54:50.518Z,6.17
2019-06-26T16:57:20.705Z,6.45
2019-06-26T16:59:50.552Z,6.00
2019-06-26T17:02:20.636Z,5.40
2019-06-26T17:04:50.589Z,5.72
2019-06-26T17:07:20.417Z,5.25
2019-06-26T17:09:50.191Z,6.40
2019-06-26T17:12:20.048Z,4.90
2019-06-26T17:14:49.838Z,5.47
2019-06-26T17:17:19.663Z,5.05
2019-06-26T17:19:49.458Z,5.25
2019-06-26T17:22:19.247Z,4.62
2019-06-26T17:24:49.068Z,4.80
2019-06-26T17:27:18.891Z,4.67
2019-06-26T17:29:51.888Z,4.22
2019-06-26T17:32:21.785Z,4.45
2019-06-26T17:34:51.567Z,3.90
2019-06-26T17:37:24.235Z,4.58
2019-06-26T17:39:54.087Z,4.08
2019-06-26T17:42:23.919Z,4.15
2019-06-26T17:44:53.698Z,4.20
2019-06-26T17:47:23.503Z,4.50
2019-06-26T17:49:53.309Z,4.40
2019-06-26T17:52:23.177Z,3.80
2019-06-26T17:54:52.984Z,3.83
2019-06-26T17:57:22.805Z,4.17
2019-06-26T17:59:52.627Z,3.80
2019-06-26T18:02:22.489Z,3.87
2019-06-26T18:04:52.307Z,3.67
2019-06-26T18:07:22.107Z,3.52
2019-06-26T18:09:51.904Z,3.95
2019-06-26T18:12:21.748Z,4.40
2019-06-26T18:14:51.556Z,3.27
2019-06-26T18:17:22.712Z,3.02
2019-06-26T18:19:53.879Z,3.27
2019-06-26T18:22:23.773Z,3.27
2019-06-26T18:24:53.850Z,2.37
2019-06-26T18:27:23.646Z,2.80
2019-06-26T18:29:53.432Z,2.90
2019-06-26T18:32:23.215Z,2.58
2019-06-26T18:34:53.005Z,2.72
2019-06-26T18:37:22.837Z,2.55
2019-06-26T18:39:52.633Z,2.40
2019-06-26T18:42:22.410Z,2.05
2019-06-26T18:44:52.271Z,2.27
2019-06-26T18:47:22.144Z,2.67
2019-06-26T18:49:51.942Z,2.25
2019-06-26T18:52:21.757Z,1.75
2019-06-26T18:54:51.549Z,1.70
2019-06-26T18:57:21.311Z,2.00
2019-06-26T18:59:51.115Z,1.77
2019-06-26T19:02:20.917Z,1.55
2019-06-26T19:04:54.016Z,1.85
2019-06-26T19:07:22.201Z,1.67
2019-06-26T19:09:51.977Z,1.45
2019-06-26T19:12:21.952Z,2.00
2019-06-26T19:14:51.755Z,1.70
2019-06-26T19:17:21.526Z,1.37
2019-06-26T19:19:51.365Z,1.42
2019-06-26T19:22:21.151Z,1.60
2019-06-26T19:24:50.941Z,1.20
2019-06-26T19:27:20.747Z,1.10
2019-06-26T19:29:50.558Z,1.47
2019-06-26T19:32:20.346Z,1.02
2019-06-26T19:34:50.165Z,1.25
2019-06-26T19:37:19.959Z,1.15
2019-06-26T19:39:49.737Z,1.30
2019-06-26T19:42:19.583Z,1.12
2019-06-26T19:44:49.367Z,1.32
2019-06-26T19:47:19.168Z,1.20
2019-06-26T19:49:48.984Z,1.17
2019-06-26T19:52:18.801Z,1.90
2019-06-26T19:54:48.638Z,1.12
2019-06-26T19:57:18.463Z,1.20
2019-06-26T19:59:48.262Z,1.05
2019-06-26T20:02:18.040Z,1.37
2019-06-26T20:04:48.469Z,1.40
2019-06-26T20:07:18.445Z,1.37
2019-06-26T20:09:48.201Z,1.12
2019-06-26T20:12:17.970Z,1.35
2019-06-26T20:14:47.776Z,1.25
2019-06-26T20:17:17.598Z,1.22
2019-06-26T20:19:47.418Z,1.32
2019-06-26T20:22:17.223Z,1.57
2019-06-26T20:24:47.085Z,1.60
2019-06-26T20:27:16.887Z,1.47
2019-06-26T20:29:46.678Z,1.70
2019-06-26T20:32:16.491Z,1.22
2019-06-26T20:34:46.266Z,1.62
2019-06-26T20:37:16.283Z,1.35
2019-06-26T20:39:46.140Z,1.30
2019-06-26T20:42:16.003Z,2.02
2019-06-26T20:44:45.811Z,1.80
2019-06-26T20:47:15.621Z,1.82
2019-06-26T20:49:53.280Z,1.32
2019-06-26T20:52:16.891Z,1.72
2019-06-26T20:55:00.042Z,1.52
2019-06-26T20:57:18.240Z,1.40
2019-06-26T20:59:48.155Z,1.67
2019-06-26T21:02:18.038Z,1.55
2019-06-26T21:04:47.901Z,1.92
2019-06-26T21:07:17.762Z,1.80
2019-06-26T21:09:47.549Z,1.32
2019-06-26T21:12:17.433Z,1.70
2019-06-26T21:14:47.313Z,1.87
2019-06-26T21:17:17.215Z,1.72
2019-06-26T21:19:47.241Z,1.30
2019-06-26T21:22:17.406Z,1.92
2019-06-26T21:24:47.261Z,1.85
2019-06-26T21:27:18.183Z,1.57
2019-06-26T21:29:48.394Z,1.67
2019-06-26T21:32:18.164Z,1.30
2019-06-26T21:34:47.949Z,1.32
2019-06-26T21:37:17.735Z,1.95
2019-06-26T21:39:47.527Z,1.75
2019-06-26T21:42:17.425Z,1.47
2019-06-26T21:44:47.340Z,1.80
2019-06-26T21:47:17.120Z,1.50
2019-06-26T21:49:47.023Z,1.70
2019-06-26T21:52:16.916Z,1.92
2019-06-26T21:54:46.821Z,1.57
2019-06-26T21:57:16.631Z,1.45
2019-06-26T21:59:46.412Z,1.67
2019-06-26T22:02:16.461Z,1.72
2019-06-26T22:04:46.409Z,1.90
2019-06-26T22:07:16.324Z,2.42
2019-06-26T22:09:46.143Z,1.55
2019-06-26T22:12:16.014Z,2.30
2019-06-26T22:14:45.826Z,1.75
2019-06-26T22:17:15.602Z,2.08
2019-06-26T22:19:45.498Z,2.10
2019-06-26T22:22:15.400Z,1.60
2019-06-26T22:24:45.211Z,2.30
2019-06-26T22:27:15.376Z,1.92
2019-06-26T22:29:45.274Z,1.92
2019-06-26T22:32:15.211Z,2.05
2019-06-26T22:37:16.671Z,1.80
2019-06-26T22:39:46.542Z,1.70
2019-06-26T22:42:16.450Z,2.05
2019-06-26T22:44:46.224Z,2.33
2019-06-26T22:47:16.128Z,2.52
2019-06-26T22:49:46.101Z,3.20
2019-06-26T22:52:15.907Z,3.27
2019-06-26T22:54:45.707Z,3.17
2019-06-26T22:57:15.498Z,3.02
2019-06-26T22:59:45.624Z,2.83
2019-06-26T23:02:15.426Z,2.70
2019-06-26T23:04:45.306Z,3.27
2019-06-26T23:07:15.201Z,2.67
2019-06-26T23:09:45.073Z,3.15
2019-06-26T23:12:14.862Z,3.35
2019-06-26T23:14:44.746Z,2.65
2019-06-26T23:17:14.542Z,2.50
2019-06-26T23:19:44.341Z,2.85
2019-06-26T23:22:14.114Z,2.47
2019-06-26T23:24:44.020Z,2.77
2019-06-26T23:27:13.909Z,2.50
2019-06-26T23:29:43.806Z,2.35
2019-06-26T23:32:13.591Z,2.80
2019-06-26T23:34:43.380Z,2.42
2019-06-26T23:37:13.170Z,3.00
2019-06-26T23:39:43.049Z,2.08
2019-06-26T23:42:12.836Z,2.65
2019-06-26T23:44:42.710Z,2.52
2019-06-26T23:47:12.607Z,2.35
2019-06-26T23:49:42.487Z,2.12
2019-06-26T23:52:12.271Z,2.10
2019-06-26T23:54:42.146Z,2.58
2019-06-26T23:57:12.039Z,2.25
2019-06-26T23:59:41.828Z,1.80
